Brak ostrzeżeń pogodowych   -   Brak ostrzeżeń pogodowych

Raporty Pogodowe z Lotnisk

 

EPKK - Krakow/Balice, Poland
Odległość od stacji: Zd 81km
Aktualizacja: 01/04/2020 20:00
Bezchmurnie
Bezchmurnie
 Wiatr z ZdPdZa
Wiatr: ZdPdZa 7 km/h
Temperatura: 4°C
Temperatura Odczuwalna: 2°C
Punkt Rosy: -9°C
Wilgotność Względna: 39%
Ciśnienie Względne: 1017 hPa
Podsumowanie: Bezchmurnie
Widoczność: większa niż 10 km
2020/04/01 18:00 EPKK 011800Z 24004KT CAVOK 04/M09 Q1017
EPRZ - Rzeszow/Jasionka, Poland
Odległość od stacji: Ws 81km
Aktualizacja: 01/04/2020 20:00
Bezchmurnie
Bezchmurnie
 Wiatr z ZdPnZd
Wiatr: ZdPnZd 9 km/h
Temperatura: 4°C
Temperatura Odczuwalna: 2°C
Punkt Rosy: -8°C
Wilgotność Względna: 42%
Ciśnienie Względne: 1017 hPa
Podsumowanie: Bezchmurnie
Widoczność: większa niż 10 km
2020/04/01 18:00 EPRZ 011800Z 29005KT CAVOK 04/M08 Q1017
 
EPKT - Katowice/Pyrzowice, Poland
Odległość od stacji: ZdPnZd 141km
Aktualizacja: 01/04/2020 20:00
Bezchmurnie
Bezchmurnie
 Wiatr z Zd
Wiatr: Zd 6 km/h
Temperatura: 1°C
Punkt Rosy: -10°C
Wilgotność Względna: 44%
Ciśnienie Względne: 1016 hPa
Podsumowanie: Bezchmurnie
Widoczność: większa niż 10 km
2020/04/01 18:00 EPKT 011800Z 26003KT CAVOK 01/M10 Q1016
EPWA - Warsaw/Okecie, Poland
Odległość od stacji: Pn 240km
Aktualizacja: 01/04/2020 20:00
Bezchmurnie
Bezchmurnie
 Wiatr z PdZd
Wiatr: PdZd 7 km/h
Temperatura: 4°C
Temperatura Odczuwalna: 2°C
Punkt Rosy: -9°C
Wilgotność Względna: 39%
Ciśnienie Względne: 1015 hPa
Podsumowanie: Bezchmurnie
Widoczność: większa niż 10 km
2020/04/01 18:00 EPWA 011800Z 23004KT 200V270 CAVOK 04/M09 Q1015 NOSIG
 
EPLL - Lodz/Lublinek, Poland
Odległość od stacji: PnPnZd 218km
Aktualizacja: 01/04/2020 20:00
Bezchmurnie
Bezchmurnie
 Wiatr z PdZd
Wiatr: PdZd 7 km/h
Temperatura: 2°C
Temperatura Odczuwalna: 0°C
Punkt Rosy: -8°C
Wilgotność Względna: 48%
Ciśnienie Względne: 1015 hPa
Podsumowanie: Bezchmurnie
Widoczność: większa niż 10 km
2020/04/01 18:00 EPLL 011800Z 22004KT CAVOK 02/M08 Q1015
EPWR - Wroclaw/Strachowice, Poland
Odległość od stacji: ZdPnZd 311km
Aktualizacja: 01/04/2020 20:00
Bezchmurnie
Bezchmurnie
 Wiatr z varies
Wiatr: varies 2 km/h
Temperatura: 4°C
Punkt Rosy: -6°C
Wilgotność Względna: 48%
Ciśnienie Względne: 1016 hPa
Podsumowanie: Bezchmurnie
Widoczność: większa niż 10 km
2020/04/01 18:00 EPWR 011800Z VRB01KT CAVOK 04/M06 Q1016
 
EPGD - Gdansk/Rebiechowo, Poland
Odległość od stacji: PnZd 553km
Aktualizacja: 01/04/2020 20:00
Przeważnie pochmurno
Przeważnie pochmurno
 Wiatr z ZdPdZa
Wiatr: ZdPdZa 24 km/h
Temperatura: 4°C
Temperatura Odczuwalna: -1°C
Punkt Rosy: 0°C
Wilgotność Względna: 75%
Ciśnienie Względne: 1010 hPa
Chmury: Przeważnie pochmurno
Widoczność: 10 km
Szczegóły chmur: Przeważnie pochmurno 701 m
2020/04/01 18:00 EPGD 011800Z 25013KT 9999 BKN023 04/00 Q1010
EPSC - Szczecin/Goleniow, Poland
Odległość od stacji: ZdPnZd 635km
Aktualizacja: 01/04/2020 20:00
Przeważnie pochmurno
Przeważnie pochmurno
 Wiatr z ZdPdZa
Wiatr: ZdPdZa 17 km/h
Temperatura: 7°C
Temperatura Odczuwalna: 4°C
Punkt Rosy: 0°C
Wilgotność Względna: 61%
Ciśnienie Względne: 1013 hPa
Chmury: Przeważnie pochmurno
Widoczność: 10 km
Szczegóły chmur: Małe zachmurzenie 1006 m
Przeważnie pochmurno 1189 m
2020/04/01 18:00 EPSC 011800Z 25009KT 9999 FEW033 BKN039 07/M00 Q1013